Time;durP1;ratioP1;P1;durP2;ratioP2;P2;SDS_P1;SDS_P2;PMS_P1;PMS_P2;Temp;Humidity;BMP_temperature;BMP_pressure;BME280_temperature;BME280_humidity;BME280_pressure;Samples;Min_cycle;Max_cycle;Signal;HPM_P1;HPM_P2
2022/12/12 00:00:10;;;;;;;15.10;12.10;;;;;;;;;;10238938;28;20084;-63
2022/12/12 00:05:10;;;;;;;13.75;12.25;;;;;;;;;;10245838;28;20077;-63
2022/12/12 00:10:09;;;;;;;16.70;12.95;;;;;;;;;;10238076;28;20069;-64
2022/12/12 00:15:09;;;;;;;20.48;15.27;;;;;;;;;;10238269;28;20073;-65
2022/12/12 00:20:08;;;;;;;22.25;17.50;;;;;;;;;;10238492;28;20072;-63
2022/12/12 00:25:07;;;;;;;16.38;12.55;;;;;;;;;;10237393;28;20541;-64
2022/12/12 00:30:06;;;;;;;14.38;12.88;;;;;;;;;;10237798;28;20073;-64
2022/12/12 00:35:06;;;;;;;18.48;12.77;;;;;;;;;;10237359;28;20091;-64
2022/12/12 00:40:05;;;;;;;16.35;13.65;;;;;;;;;;10236782;28;20041;-63
2022/12/12 00:45:03;;;;;;;13.93;12.35;;;;;;;;;;10236956;28;20080;-63
2022/12/12 00:50:01;;;;;;;16.40;13.48;;;;;;;;;;10235551;28;20095;-64
2022/12/12 00:55:01;;;;;;;15.85;12.95;;;;;;;;;;10234082;28;20081;-63
2022/12/12 00:59:59;;;;;;;14.20;12.20;;;;;;;;;;10235433;28;20077;-64
2022/12/12 01:04:58;;;;;;;14.80;12.85;;;;;;;;;;10234355;28;20068;-64
2022/12/12 01:09:56;;;;;;;15.10;12.18;;;;;;;;;;10236253;28;20501;-63
2022/12/12 01:14:56;;;;;;;14.25;12.48;;;;;;;;;;10234087;28;20084;-64
2022/12/12 01:19:54;;;;;;;14.55;12.50;;;;;;;;;;10236005;28;20085;-64
2022/12/12 01:24:55;;;;;;;13.88;12.10;;;;;;;;;;10234929;28;20080;-64
2022/12/12 01:29:57;;;;;;;13.80;12.07;;;;;;;;;;10235035;28;20085;-63
2022/12/12 01:34:56;;;;;;;14.65;12.23;;;;;;;;;;10234741;28;20076;-63
2022/12/12 01:39:54;;;;;;;14.02;11.82;;;;;;;;;;10233250;28;20081;-67
2022/12/12 01:44:53;;;;;;;12.98;11.45;;;;;;;;;;10234878;28;20084;-64
2022/12/12 01:49:52;;;;;;;16.60;13.80;;;;;;;;;;10235190;28;20084;-64
2022/12/12 01:54:54;;;;;;;15.15;12.38;;;;;;;;;;10234201;28;20073;-65
2022/12/12 01:59:52;;;;;;;18.42;14.00;;;;;;;;;;10234188;28;20069;-64
2022/12/12 02:04:51;;;;;;;16.90;14.00;;;;;;;;;;10233779;28;20080;-64
2022/12/12 02:09:50;;;;;;;17.23;13.65;;;;;;;;;;10224346;28;20060;-65
2022/12/12 02:14:51;;;;;;;16.52;13.73;;;;;;;;;;10233419;28;20510;-64
2022/12/12 02:20:11;;;;;;;17.00;13.63;;;;;;;;;;10233472;28;20080;-64
2022/12/12 02:25:27;;;;;;;20.55;15.55;;;;;;;;;;10231877;28;20431;-63
2022/12/12 02:30:31;;;;;;;17.90;12.98;;;;;;;;;;10233023;28;20068;-65
2022/12/12 02:35:35;;;;;;;16.58;13.25;;;;;;;;;;10232328;28;20076;-64
2022/12/12 02:40:35;;;;;;;14.32;12.00;;;;;;;;;;10231938;28;20076;-63
2022/12/12 02:45:36;;;;;;;17.27;13.88;;;;;;;;;;10231609;28;20636;-63
2022/12/12 02:50:36;;;;;;;14.73;12.90;;;;;;;;;;10230953;28;20486;-64
2022/12/12 02:55:34;;;;;;;18.25;13.95;;;;;;;;;;10231590;28;20103;-64
2022/12/12 03:00:40;;;;;;;19.88;15.88;;;;;;;;;;10231405;28;20080;-64
2022/12/12 03:11:00;;;;;;;13.48;11.77;;;;;;;;;;10233502;28;20085;-64
2022/12/12 03:16:05;;;;;;;17.48;12.13;;;;;;;;;;10230433;28;20076;-63
2022/12/12 03:21:06;;;;;;;18.15;14.65;;;;;;;;;;10213013;28;20053;-64
2022/12/12 03:26:06;;;;;;;15.57;12.60;;;;;;;;;;10236031;28;20076;-64
2022/12/12 03:31:06;;;;;;;18.85;14.35;;;;;;;;;;10238751;28;20073;-64
2022/12/12 03:36:09;;;;;;;22.13;18.30;;;;;;;;;;10238460;28;20084;-65
2022/12/12 03:41:11;;;;;;;14.63;11.82;;;;;;;;;;10238513;28;20069;-64
2022/12/12 03:46:14;;;;;;;15.52;12.45;;;;;;;;;;10239603;28;20076;-63
2022/12/12 03:51:18;;;;;;;18.35;13.95;;;;;;;;;;10239379;28;20426;-64
2022/12/12 03:56:18;;;;;;;15.05;12.60;;;;;;;;;;10235949;28;20077;-64
2022/12/12 04:01:18;;;;;;;16.00;12.63;;;;;;;;;;10237250;28;20061;-64
2022/12/12 04:06:27;;;;;;;14.98;12.55;;;;;;;;;;10236646;28;20077;-64
2022/12/12 04:16:42;;;;;;;14.88;11.95;;;;;;;;;;10238288;28;20077;-65
2022/12/12 04:27:03;;;;;;;18.83;13.75;;;;;;;;;;10238318;28;20061;-64
2022/12/12 04:32:05;;;;;;;15.55;12.13;;;;;;;;;;10236001;28;20084;-64
2022/12/12 04:37:06;;;;;;;18.17;12.20;;;;;;;;;;10235859;28;20351;-65
2022/12/12 04:42:05;;;;;;;14.52;12.23;;;;;;;;;;10236031;28;20109;-65
2022/12/12 04:47:05;;;;;;;14.95;12.15;;;;;;;;;;10233722;28;20097;-63
2022/12/12 04:52:07;;;;;;;16.17;12.20;;;;;;;;;;10235830;28;20502;-64
2022/12/12 04:57:07;;;;;;;13.70;11.80;;;;;;;;;;10235803;28;20074;-64
2022/12/12 05:02:11;;;;;;;13.45;11.65;;;;;;;;;;10235514;28;20462;-65
2022/12/12 05:07:12;;;;;;;15.00;12.20;;;;;;;;;;10236888;28;20061;-64
2022/12/12 05:12:10;;;;;;;16.27;12.18;;;;;;;;;;10236361;28;20079;-64
2022/12/12 05:17:10;;;;;;;15.55;12.18;;;;;;;;;;10236051;28;20088;-64
2022/12/12 05:22:09;;;;;;;14.32;11.65;;;;;;;;;;10236014;28;20069;-65
2022/12/12 05:27:10;;;;;;;14.68;12.43;;;;;;;;;;10236149;28;20095;-65
2022/12/12 05:32:08;;;;;;;14.45;11.90;;;;;;;;;;10235990;28;20075;-64
2022/12/12 05:37:06;;;;;;;16.50;12.75;;;;;;;;;;10234085;28;20064;-64
2022/12/12 05:42:05;;;;;;;16.17;13.27;;;;;;;;;;10235079;28;20514;-65
2022/12/12 05:47:04;;;;;;;19.52;14.30;;;;;;;;;;10233403;28;20081;-64
2022/12/12 05:52:02;;;;;;;15.50;12.63;;;;;;;;;;10230718;28;20082;-65
2022/12/12 05:57:01;;;;;;;14.38;12.13;;;;;;;;;;10234718;28;20077;-65
2022/12/12 06:01:59;;;;;;;21.13;15.02;;;;;;;;;;10234556;28;20037;-65
2022/12/12 06:06:58;;;;;;;17.67;13.48;;;;;;;;;;10233739;28;20073;-65
2022/12/12 06:11:57;;;;;;;12.15;10.88;;;;;;;;;;10233212;28;20077;-65
2022/12/12 06:16:55;;;;;;;15.70;11.98;;;;;;;;;;10230245;28;20085;-65
2022/12/12 06:21:53;;;;;;;19.00;13.32;;;;;;;;;;10230832;28;20068;-65
2022/12/12 06:26:53;;;;;;;17.95;12.15;;;;;;;;;;10233622;28;20434;-65
2022/12/12 06:31:51;;;;;;;17.67;12.77;;;;;;;;;;10233030;28;20069;-65
2022/12/12 06:36:49;;;;;;;15.80;12.65;;;;;;;;;;10230997;28;20088;-66
2022/12/12 06:41:47;;;;;;;15.57;12.38;;;;;;;;;;10246064;28;20498;-65
2022/12/12 06:46:47;;;;;;;14.70;12.02;;;;;;;;;;10232794;28;20096;-65
2022/12/12 06:51:45;;;;;;;13.25;11.32;;;;;;;;;;10231424;28;20518;-64
2022/12/12 06:56:43;;;;;;;13.82;10.95;;;;;;;;;;10247557;28;20088;-64
2022/12/12 07:01:47;;;;;;;16.20;12.10;;;;;;;;;;10237795;28;20072;-64
2022/12/12 07:06:45;;;;;;;19.55;14.73;;;;;;;;;;10241373;28;20065;-64
2022/12/12 07:11:43;;;;;;;16.55;13.73;;;;;;;;;;10239714;28;20069;-64
2022/12/12 07:16:41;;;;;;;16.98;13.45;;;;;;;;;;10240927;28;20143;-65
2022/12/12 07:21:41;;;;;;;22.50;17.27;;;;;;;;;;10239858;28;20046;-66
2022/12/12 07:26:39;;;;;;;13.65;12.13;;;;;;;;;;10240222;28;20080;-65
2022/12/12 07:31:37;;;;;;;17.98;14.48;;;;;;;;;;10240878;28;20072;-65
2022/12/12 07:36:36;;;;;;;17.38;14.13;;;;;;;;;;10254820;28;20089;-65
2022/12/12 07:41:35;;;;;;;14.60;12.15;;;;;;;;;;10237839;28;20073;-65
2022/12/12 07:46:34;;;;;;;13.85;12.45;;;;;;;;;;10219570;28;20084;-65
2022/12/12 07:51:32;;;;;;;14.50;12.15;;;;;;;;;;10239104;28;20066;-65
2022/12/12 07:56:31;;;;;;;23.80;14.68;;;;;;;;;;10224636;28;20073;-64
2022/12/12 08:01:30;;;;;;;18.45;13.15;;;;;;;;;;10234847;28;20065;-64
2022/12/12 08:06:29;;;;;;;18.75;13.88;;;;;;;;;;10237033;28;20080;-64
2022/12/12 08:11:27;;;;;;;19.73;15.32;;;;;;;;;;10234920;28;20545;-64
2022/12/12 08:16:26;;;;;;;15.43;11.68;;;;;;;;;;10233628;28;20088;-64
2022/12/12 08:21:26;;;;;;;19.27;13.45;;;;;;;;;;10234750;28;20068;-64
2022/12/12 08:26:25;;;;;;;24.17;18.15;;;;;;;;;;10236219;28;20073;-63
2022/12/12 08:31:24;;;;;;;26.40;18.73;;;;;;;;;;10236023;28;20470;-63
2022/12/12 08:36:24;;;;;;;22.92;14.75;;;;;;;;;;10237896;28;20085;-64
2022/12/12 08:41:23;;;;;;;26.92;19.25;;;;;;;;;;10237818;28;20072;-64
2022/12/12 08:46:23;;;;;;;18.85;13.82;;;;;;;;;;10237035;28;20089;-64
2022/12/12 08:51:21;;;;;;;17.98;14.75;;;;;;;;;;10237079;28;20081;-64
2022/12/12 08:56:20;;;;;;;22.52;15.80;;;;;;;;;;10235571;28;20073;-64
2022/12/12 09:01:22;;;;;;;28.75;18.42;;;;;;;;;;10235095;28;20052;-64
2022/12/12 09:06:20;;;;;;;20.42;14.93;;;;;;;;;;10234403;28;20112;-64
2022/12/12 09:11:18;;;;;;;23.63;18.00;;;;;;;;;;10235597;28;20084;-64
2022/12/12 09:16:18;;;;;;;26.48;19.05;;;;;;;;;;10235594;28;20479;-64
2022/12/12 09:21:18;;;;;;;34.15;20.80;;;;;;;;;;10233427;28;20088;-64
2022/12/12 09:26:17;;;;;;;18.27;14.82;;;;;;;;;;10235031;28;20075;-65
2022/12/12 09:31:16;;;;;;;27.85;19.90;;;;;;;;;;10235516;28;20080;-65
2022/12/12 09:36:14;;;;;;;22.90;17.52;;;;;;;;;;10234596;28;20073;-65
2022/12/12 09:41:17;;;;;;;24.25;15.55;;;;;;;;;;10235742;28;20127;-63
2022/12/12 09:46:21;;;;;;;22.15;15.23;;;;;;;;;;10230930;28;20119;-63
2022/12/12 09:51:20;;;;;;;19.52;14.82;;;;;;;;;;10233130;28;20069;-63
2022/12/12 09:56:22;;;;;;;20.70;15.45;;;;;;;;;;10232362;28;20072;-64
2022/12/12 10:01:23;;;;;;;24.48;18.13;;;;;;;;;;10232672;28;20068;-62
2022/12/12 10:06:22;;;;;;;20.23;17.23;;;;;;;;;;10231976;28;20069;-64
2022/12/12 10:11:53;;;;;;;22.67;17.63;;;;;;;;;;10231954;28;20295;-64
2022/12/12 10:16:52;;;;;;;18.70;14.98;;;;;;;;;;10229434;28;20093;-64
2022/12/12 10:21:56;;;;;;;19.73;13.90;;;;;;;;;;10230986;28;20088;-63
2022/12/12 10:26:57;;;;;;;18.20;14.18;;;;;;;;;;10222347;28;20499;-63
2022/12/12 10:32:01;;;;;;;17.98;13.65;;;;;;;;;;10232937;28;20092;-63
2022/12/12 10:37:07;;;;;;;13.75;12.23;;;;;;;;;;10233082;28;20498;-64
2022/12/12 10:42:12;;;;;;;35.83;22.83;;;;;;;;;;10230715;28;20114;-63
2022/12/12 10:47:11;;;;;;;53.55;34.65;;;;;;;;;;10232169;28;20100;-64
2022/12/12 10:52:16;;;;;;;55.35;36.58;;;;;;;;;;10232895;28;20485;-64
2022/12/12 10:57:19;;;;;;;38.20;24.50;;;;;;;;;;10233106;28;20093;-64
2022/12/12 11:02:29;;;;;;;24.95;19.50;;;;;;;;;;10230464;28;20076;-64
2022/12/12 11:07:28;;;;;;;20.77;15.95;;;;;;;;;;10232446;28;20065;-64
2022/12/12 11:12:33;;;;;;;22.65;19.27;;;;;;;;;;10232618;28;20069;-64
2022/12/12 11:17:31;;;;;;;;;;;;;;;;;;10232203;28;20107;-64
2022/12/12 11:22:31;;;;;;;18.77;15.32;;;;;;;;;;10232525;28;19963;-65
2022/12/12 11:27:32;;;;;;;25.52;17.92;;;;;;;;;;10232261;28;20083;-64
2022/12/12 11:32:37;;;;;;;20.65;15.27;;;;;;;;;;10231503;28;20506;-64
2022/12/12 11:37:38;;;;;;;29.17;21.20;;;;;;;;;;10230517;28;20085;-64
2022/12/12 11:42:36;;;;;;;29.33;23.63;;;;;;;;;;10231074;28;20037;-64
2022/12/12 11:47:41;;;;;;;21.67;16.98;;;;;;;;;;10233618;28;20471;-64
2022/12/12 11:52:39;;;;;;;22.77;16.67;;;;;;;;;;10238622;28;20165;-64
2022/12/12 11:57:43;;;;;;;18.48;14.65;;;;;;;;;;10239366;28;20089;-63
2022/12/12 12:02:56;;;;;;;23.90;18.98;;;;;;;;;;10237562;28;20084;-64
2022/12/12 12:08:02;;;;;;;15.95;13.85;;;;;;;;;;10237533;28;20077;-65
2022/12/12 12:13:07;;;;;;;19.63;13.65;;;;;;;;;;10319263;28;20561;-64
2022/12/12 12:18:05;;;;;;;;;;;;;;;;;;10317697;28;20080;-63
2022/12/12 12:23:08;;;;;;;18.20;13.00;;;;;;;;;;10317401;28;19955;-63
2022/12/12 12:28:27;;;;;;;18.48;13.25;;;;;;;;;;10317268;28;21407;-64
2022/12/12 12:33:34;;;;;;;22.35;18.23;;;;;;;;;;10317391;28;20064;-64
2022/12/12 12:38:45;;;;;;;17.20;13.30;;;;;;;;;;10315816;28;20096;-64
2022/12/12 12:43:57;;;;;;;28.00;19.60;;;;;;;;;;10317389;28;20520;-63
2022/12/12 12:48:58;;;;;;;21.15;16.10;;;;;;;;;;10316115;28;20084;-65
2022/12/12 12:54:02;;;;;;;12.43;10.45;;;;;;;;;;10316757;28;20095;-64
2022/12/12 12:59:01;;;;;;;16.23;14.52;;;;;;;;;;10317703;28;20555;-63
2022/12/12 13:04:02;;;;;;;13.30;11.50;;;;;;;;;;10316767;28;20060;-63
2022/12/12 13:09:03;;;;;;;15.40;13.88;;;;;;;;;;10290391;28;20049;-64
2022/12/12 13:14:07;;;;;;;25.48;18.95;;;;;;;;;;10316549;28;20083;-63
2022/12/12 13:19:06;;;;;;;38.22;21.70;;;;;;;;;;10314915;28;20084;-63
2022/12/12 13:24:08;;;;;;;18.92;15.45;;;;;;;;;;10314572;28;20493;-64
2022/12/12 13:29:11;;;;;;;24.70;16.45;;;;;;;;;;10314568;28;20106;-64
2022/12/12 13:34:11;;;;;;;16.20;13.07;;;;;;;;;;10314080;28;20083;-63
2022/12/12 13:39:23;;;;;;;21.83;14.93;;;;;;;;;;10315971;28;20091;-63
2022/12/12 13:44:33;;;;;;;32.47;24.48;;;;;;;;;;10313633;28;20456;-64
2022/12/12 13:49:47;;;;;;;33.05;20.35;;;;;;;;;;10315004;28;20106;-65
2022/12/12 13:54:47;;;;;;;20.20;14.80;;;;;;;;;;10315228;28;20577;-64
2022/12/12 14:00:00;;;;;;;66.18;40.78;;;;;;;;;;10314814;28;20725;-64
2022/12/12 14:05:09;;;;;;;32.38;23.45;;;;;;;;;;10280418;28;20114;-64
2022/12/12 14:10:17;;;;;;;21.77;16.15;;;;;;;;;;10312954;28;20072;-63
2022/12/12 14:15:20;;;;;;;27.73;23.30;;;;;;;;;;10313129;28;20079;-63
2022/12/12 14:20:27;;;;;;;28.35;23.45;;;;;;;;;;10314684;28;20082;-64
2022/12/12 14:25:32;;;;;;;19.98;17.88;;;;;;;;;;10313038;28;20083;-64
2022/12/12 14:30:37;;;;;;;33.83;26.08;;;;;;;;;;10314064;28;20076;-65
2022/12/12 14:35:35;;;;;;;;;;;;;;;;;;10313099;28;20084;-64
2022/12/12 14:40:37;;;;;;;21.55;17.80;;;;;;;;;;10311554;28;19959;-65
2022/12/12 14:45:37;;;;;;;20.02;16.00;;;;;;;;;;10311572;28;20068;-63
2022/12/12 14:50:36;;;;;;;21.15;18.90;;;;;;;;;;10311352;28;20096;-64
2022/12/12 14:55:36;;;;;;;20.27;15.30;;;;;;;;;;10314175;28;20068;-64
2022/12/12 15:00:34;;;;;;;19.33;16.65;;;;;;;;;;10311416;28;20115;-65
2022/12/12 15:05:32;;;;;;;23.88;20.75;;;;;;;;;;10311147;28;20080;-64
2022/12/12 15:10:32;;;;;;;34.22;22.45;;;;;;;;;;10311607;28;20498;-64
2022/12/12 15:15:33;;;;;;;25.48;19.00;;;;;;;;;;10312592;28;20458;-65
2022/12/12 15:20:32;;;;;;;28.17;22.63;;;;;;;;;;10313529;28;20064;-63
2022/12/12 15:25:31;;;;;;;18.42;16.52;;;;;;;;;;10321025;28;20076;-63
2022/12/12 15:30:32;;;;;;;16.65;14.15;;;;;;;;;;10320082;28;20075;-64
2022/12/12 15:35:31;;;;;;;21.42;17.27;;;;;;;;;;10319624;28;20083;-63
2022/12/12 15:40:31;;;;;;;19.83;15.57;;;;;;;;;;10321135;28;20076;-63
2022/12/12 15:45:32;;;;;;;21.42;17.73;;;;;;;;;;10320499;28;20044;-64
2022/12/12 15:50:35;;;;;;;22.48;18.38;;;;;;;;;;10320837;28;20084;-63
2022/12/12 15:55:34;;;;;;;23.73;16.92;;;;;;;;;;10319613;28;20465;-63
2022/12/12 16:00:38;;;;;;;21.30;19.00;;;;;;;;;;10319568;28;20486;-64
2022/12/12 16:05:37;;;;;;;27.60;24.77;;;;;;;;;;10316625;28;20080;-64
2022/12/12 16:10:52;;;;;;;41.60;37.20;;;;;;;;;;10316984;28;20117;-63
2022/12/12 16:15:52;;;;;;;43.90;38.70;;;;;;;;;;10314670;28;20090;-63
2022/12/12 16:20:53;;;;;;;22.75;19.25;;;;;;;;;;10313837;28;20079;-64
2022/12/12 16:25:51;;;;;;;32.08;23.17;;;;;;;;;;10314687;28;20092;-64
2022/12/12 16:30:51;;;;;;;29.60;23.48;;;;;;;;;;10318216;28;20473;-65
2022/12/12 16:35:50;;;;;;;23.55;19.13;;;;;;;;;;10319052;28;20437;-64
2022/12/12 16:40:49;;;;;;;29.15;20.27;;;;;;;;;;10318295;28;20076;-64
2022/12/12 16:45:48;;;;;;;36.38;25.55;;;;;;;;;;10317451;28;20068;-63
2022/12/12 16:50:47;;;;;;;75.85;48.53;;;;;;;;;;10318210;28;20631;-62
2022/12/12 16:55:47;;;;;;;28.58;23.00;;;;;;;;;;10317837;28;20080;-63
2022/12/12 17:00:46;;;;;;;19.52;15.32;;;;;;;;;;10316158;28;20080;-64
2022/12/12 17:05:44;;;;;;;26.63;16.67;;;;;;;;;;10317672;28;20071;-64
2022/12/12 17:10:43;;;;;;;16.58;12.00;;;;;;;;;;10316800;28;20076;-64
2022/12/12 17:15:43;;;;;;;23.25;17.20;;;;;;;;;;10316759;28;20102;-63
2022/12/12 17:20:41;;;;;;;22.05;16.17;;;;;;;;;;10315029;28;20082;-63
2022/12/12 17:25:40;;;;;;;23.80;16.83;;;;;;;;;;10316909;28;20063;-64
2022/12/12 17:30:39;;;;;;;23.17;18.45;;;;;;;;;;10314543;28;20063;-63
2022/12/12 17:35:39;;;;;;;21.45;16.52;;;;;;;;;;10314807;28;20072;-63
2022/12/12 17:40:41;;;;;;;20.48;15.30;;;;;;;;;;10314561;28;20489;-63
2022/12/12 17:45:39;;;;;;;21.08;15.57;;;;;;;;;;10314058;28;20068;-63
2022/12/12 17:50:39;;;;;;;26.08;19.48;;;;;;;;;;10313390;28;20080;-63
2022/12/12 17:55:40;;;;;;;21.15;17.70;;;;;;;;;;10312833;28;20095;-63
2022/12/12 18:00:53;;;;;;;32.65;23.98;;;;;;;;;;10311100;28;20076;-61
2022/12/12 18:05:52;;;;;;;28.58;21.05;;;;;;;;;;10313059;28;20085;-63
2022/12/12 18:10:51;;;;;;;29.00;18.80;;;;;;;;;;10312912;28;20075;-64
2022/12/12 18:15:53;;;;;;;24.98;17.05;;;;;;;;;;10314736;28;20072;-63
2022/12/12 18:20:52;;;;;;;21.35;16.02;;;;;;;;;;10310795;28;20068;-64
2022/12/12 18:25:51;;;;;;;18.20;14.68;;;;;;;;;;10312780;28;20071;-63
2022/12/12 18:30:50;;;;;;;18.80;14.85;;;;;;;;;;10314131;28;20068;-64
2022/12/12 18:35:48;;;;;;;22.05;15.80;;;;;;;;;;10312942;28;20656;-64
2022/12/12 18:40:47;;;;;;;20.48;16.10;;;;;;;;;;10313010;28;20477;-63
2022/12/12 18:45:46;;;;;;;20.15;15.95;;;;;;;;;;10311373;28;20075;-63
2022/12/12 18:50:45;;;;;;;29.88;18.73;;;;;;;;;;10312517;28;20095;-63
2022/12/12 18:55:44;;;;;;;26.25;17.50;;;;;;;;;;10317283;28;20553;-64
2022/12/12 19:00:43;;;;;;;23.33;16.75;;;;;;;;;;10326366;28;20450;-63
2022/12/12 19:05:42;;;;;;;17.70;13.75;;;;;;;;;;10326530;28;20068;-63
2022/12/12 19:10:40;;;;;;;28.63;17.92;;;;;;;;;;10324142;28;20080;-65
2022/12/12 19:15:39;;;;;;;12.57;11.27;;;;;;;;;;10325457;28;20075;-62
2022/12/12 19:20:38;;;;;;;15.13;12.43;;;;;;;;;;10322373;28;20072;-63
2022/12/12 19:25:37;;;;;;;14.88;13.35;;;;;;;;;;10323775;28;20087;-62
2022/12/12 19:30:40;;;;;;;15.70;10.90;;;;;;;;;;10321273;28;20068;-62
2022/12/12 19:35:40;;;;;;;31.35;17.35;;;;;;;;;;10326775;28;20513;-63
2022/12/12 19:40:38;;;;;;;30.80;16.80;;;;;;;;;;10323263;28;20084;-64
2022/12/12 19:45:36;;;;;;;64.35;28.45;;;;;;;;;;10305255;28;20095;-64
2022/12/12 19:50:35;;;;;;;33.78;18.20;;;;;;;;;;10324624;28;20072;-62
2022/12/12 19:55:34;;;;;;;15.10;12.80;;;;;;;;;;10325961;28;20078;-64
2022/12/12 20:00:33;;;;;;;25.33;16.73;;;;;;;;;;10326316;28;20080;-63
2022/12/12 20:05:31;;;;;;;25.17;14.05;;;;;;;;;;10325849;28;20071;-63
2022/12/12 20:10:30;;;;;;;13.88;9.68;;;;;;;;;;10318696;28;20069;-63
2022/12/12 20:15:29;;;;;;;21.20;13.43;;;;;;;;;;10319512;28;20544;-63
2022/12/12 20:20:28;;;;;;;15.80;11.73;;;;;;;;;;10318637;28;20087;-64
2022/12/12 20:25:26;;;;;;;19.55;16.25;;;;;;;;;;10318095;28;20493;-63
2022/12/12 20:30:24;;;;;;;18.63;11.90;;;;;;;;;;10315734;28;20076;-62
2022/12/12 20:35:24;;;;;;;20.73;12.70;;;;;;;;;;10316317;28;20083;-63
2022/12/12 20:40:22;;;;;;;17.42;11.07;;;;;;;;;;10316335;28;20087;-63
2022/12/12 20:45:20;;;;;;;13.77;9.85;;;;;;;;;;10318137;28;20488;-64
2022/12/12 20:50:18;;;;;;;17.80;10.93;;;;;;;;;;10318294;28;20086;-62
2022/12/12 20:55:18;;;;;;;18.73;12.02;;;;;;;;;;10318194;28;20076;-64
2022/12/12 21:00:17;;;;;;;20.50;13.80;;;;;;;;;;10318003;28;20082;-63
2022/12/12 21:05:16;;;;;;;23.48;13.93;;;;;;;;;;10317211;28;20091;-64
2022/12/12 21:10:14;;;;;;;28.02;18.40;;;;;;;;;;10317731;28;20044;-62
2022/12/12 21:15:14;;;;;;;20.65;14.25;;;;;;;;;;10317448;28;20068;-63
2022/12/12 21:20:13;;;;;;;32.92;17.23;;;;;;;;;;10314359;28;20072;-61
2022/12/12 21:25:11;;;;;;;37.97;20.17;;;;;;;;;;10316744;28;20048;-62
2022/12/12 21:30:10;;;;;;;61.85;35.55;;;;;;;;;;10315267;28;20075;-61
2022/12/12 21:35:10;;;;;;;24.98;16.92;;;;;;;;;;10313758;28;20079;-63
2022/12/12 21:40:09;;;;;;;16.95;12.25;;;;;;;;;;10313952;28;20080;-62
2022/12/12 21:45:10;;;;;;;10.43;9.32;;;;;;;;;;10313829;28;20484;-63
2022/12/12 21:50:10;;;;;;;10.85;9.70;;;;;;;;;;10314202;28;20079;-63
2022/12/12 21:55:09;;;;;;;16.02;11.38;;;;;;;;;;10313767;28;20445;-63
2022/12/12 22:00:08;;;;;;;11.48;10.27;;;;;;;;;;10309295;28;20079;-63
2022/12/12 22:05:10;;;;;;;19.13;11.20;;;;;;;;;;10320507;28;20154;-63
2022/12/12 22:10:09;;;;;;;15.43;10.90;;;;;;;;;;10312461;28;20087;-63
2022/12/12 22:15:09;;;;;;;21.85;12.00;;;;;;;;;;10312847;28;20517;-64
2022/12/12 22:20:08;;;;;;;11.43;8.63;;;;;;;;;;10314635;28;20036;-63
2022/12/12 22:25:08;;;;;;;7.18;6.57;;;;;;;;;;10313717;28;20087;-63
2022/12/12 22:30:07;;;;;;;7.93;6.55;;;;;;;;;;10314196;28;20078;-64
2022/12/12 22:35:06;;;;;;;18.73;10.60;;;;;;;;;;10314474;28;20043;-63
2022/12/12 22:40:05;;;;;;;14.38;9.68;;;;;;;;;;10311081;28;20819;-63
2022/12/12 22:45:05;;;;;;;18.10;11.77;;;;;;;;;;10313878;28;20509;-64
2022/12/12 22:50:03;;;;;;;13.00;8.77;;;;;;;;;;10314025;28;20091;-63
2022/12/12 22:55:02;;;;;;;7.70;6.45;;;;;;;;;;10313351;28;20084;-64
2022/12/12 23:00:00;;;;;;;8.55;6.63;;;;;;;;;;10310556;28;20094;-63
2022/12/12 23:05:00;;;;;;;11.50;9.85;;;;;;;;;;10310291;28;20506;-63
2022/12/12 23:09:58;;;;;;;10.88;9.77;;;;;;;;;;10310244;28;20060;-63
2022/12/12 23:14:57;;;;;;;10.88;8.68;;;;;;;;;;10312933;28;20076;-62
2022/12/12 23:19:55;;;;;;;19.45;11.77;;;;;;;;;;10311272;28;20084;-63
2022/12/12 23:24:54;;;;;;;13.02;10.45;;;;;;;;;;10311243;28;20471;-62
2022/12/12 23:29:53;;;;;;;10.98;9.07;;;;;;;;;;10308747;28;20080;-63
2022/12/12 23:34:51;;;;;;;9.73;7.93;;;;;;;;;;10313039;28;20064;-63
2022/12/12 23:39:50;;;;;;;18.92;11.30;;;;;;;;;;10312230;28;20064;-64
2022/12/12 23:44:49;;;;;;;17.65;10.88;;;;;;;;;;10318360;28;20068;-63
2022/12/12 23:49:48;;;;;;;15.55;11.30;;;;;;;;;;10320869;28;20087;-63
2022/12/12 23:54:46;;;;;;;17.70;13.63;;;;;;;;;;10320379;28;20080;-62
2022/12/12 23:59:44;;;;;;;25.23;15.40;;;;;;;;;;10319868;28;20067;-63
